Time;durP1;ratioP1;P1;durP2;ratioP2;P2;SDS_P1;SDS_P2;PMS_P1;PMS_P2;Temp;Humidity;BMP_temperature;BMP_pressure;BME280_temperature;BME280_humidity;BME280_pressure;Samples;Min_cycle;Max_cycle;Signal;HPM_P1;HPM_P2
2022/04/01 00:02:17;;;;;;;87.72;41.63;;;;;;;;;;6241361;23;20003;-86
2022/04/01 00:04:43;;;;;;;748.55;396.35;;;;;;;;;;6241530;23;20022;-87
2022/04/01 00:07:09;;;;;;;4.90;1.80;;;;;;;;;;6242395;23;20448;-88
2022/04/01 00:09:37;;;;;;;237.95;118.47;;;;;;;;;;6241566;23;20003;-87
2022/04/01 00:12:03;;;;;;;215.50;120.00;;;;;;;;;;6241980;22;20080;-86
2022/04/01 00:14:29;;;;;;;122.13;65.45;;;;;;;;;;6241398;23;20019;-86
2022/04/01 00:16:55;;;;;;;181.70;82.88;;;;;;;;;;6241283;23;20340;-86
2022/04/01 00:19:21;;;;;;;170.90;82.70;;;;;;;;;;6241536;23;19996;-86
2022/04/01 00:21:47;;;;;;;373.67;155.50;;;;;;;;;;6241119;23;20000;-86
2022/04/01 00:24:14;;;;;;;388.15;167.35;;;;;;;;;;6241377;23;20067;-86
2022/04/01 00:26:40;;;;;;;246.57;108.60;;;;;;;;;;6242292;22;20445;-87
2022/04/01 00:29:14;;;;;;;188.43;85.53;;;;;;;;;;6241314;23;20000;-87
2022/04/01 00:31:50;;;;;;;255.40;108.45;;;;;;;;;;6242463;22;20000;-88
2022/04/01 00:34:17;;;;;;;351.10;140.55;;;;;;;;;;6239438;23;20083;-88
2022/04/01 00:36:44;;;;;;;376.77;149.35;;;;;;;;;;6241324;23;20012;-86
2022/04/01 00:39:10;;;;;;;359.33;142.32;;;;;;;;;;6242203;23;20058;-87
2022/04/01 00:41:36;;;;;;;500.08;203.85;;;;;;;;;;6239661;23;20446;-87
2022/04/01 00:44:13;;;;;;;464.35;181.55;;;;;;;;;;6241225;23;20004;-86
2022/04/01 00:46:43;;;;;;;446.83;178.10;;;;;;;;;;6240710;23;20004;-86
2022/04/01 00:49:09;;;;;;;449.75;175.57;;;;;;;;;;6241273;23;20004;-87
2022/04/01 00:51:37;;;;;;;465.52;180.57;;;;;;;;;;6241242;23;19996;-86
2022/04/01 00:54:03;;;;;;;488.77;192.55;;;;;;;;;;6241079;22;20246;-86
2022/04/01 00:56:32;;;;;;;485.25;192.15;;;;;;;;;;6240830;23;20314;-85
2022/04/01 00:58:58;;;;;;;511.75;204.77;;;;;;;;;;6240829;23;20001;-86
2022/04/01 01:01:25;;;;;;;483.45;189.52;;;;;;;;;;6238674;23;20004;-86
2022/04/01 01:03:51;;;;;;;487.38;194.48;;;;;;;;;;6241015;22;20337;-87
2022/04/01 01:06:17;;;;;;;495.92;195.80;;;;;;;;;;6239340;23;20004;-85
2022/04/01 01:08:43;;;;;;;480.70;186.90;;;;;;;;;;6240281;23;20077;-86
2022/04/01 01:11:09;;;;;;;491.65;192.48;;;;;;;;;;6239952;23;20012;-86
2022/04/01 01:13:36;;;;;;;497.67;194.98;;;;;;;;;;6239040;23;20000;-86
2022/04/01 01:16:02;;;;;;;501.92;209.88;;;;;;;;;;6239256;23;20138;-86
2022/04/01 01:18:28;;;;;;;564.85;238.57;;;;;;;;;;6239427;23;20050;-87
2022/04/01 01:20:54;;;;;;;557.55;237.77;;;;;;;;;;6240830;23;20008;-86
2022/04/01 01:23:20;;;;;;;557.67;236.18;;;;;;;;;;6240785;22;20383;-85
2022/04/01 01:25:46;;;;;;;542.53;226.65;;;;;;;;;;6238950;23;19996;-85
2022/04/01 01:28:13;;;;;;;559.45;236.82;;;;;;;;;;6241682;23;20091;-87
2022/04/01 01:30:39;;;;;;;516.17;206.63;;;;;;;;;;6239324;23;20008;-86
2022/04/01 01:33:05;;;;;;;460.90;168.27;;;;;;;;;;6239186;23;20212;-87
2022/04/01 01:35:32;;;;;;;428.67;168.82;;;;;;;;;;6239010;23;20091;-87
2022/04/01 01:37:58;;;;;;;472.77;192.73;;;;;;;;;;6240773;22;20020;-87
2022/04/01 01:40:24;;;;;;;469.92;185.43;;;;;;;;;;6240610;22;20072;-87
2022/04/01 01:42:50;;;;;;;423.52;165.80;;;;;;;;;;6238955;23;20031;-87
2022/04/01 01:45:16;;;;;;;460.23;188.07;;;;;;;;;;6240950;23;20000;-87
2022/04/01 01:47:42;;;;;;;460.23;184.98;;;;;;;;;;6241627;23;20008;-86
2022/04/01 01:55:38;;;;;;;593.45;249.65;;;;;;;;;;6240406;23;20101;-86
2022/04/01 01:58:05;;;;;;;628.42;276.38;;;;;;;;;;6239102;23;20000;-86
2022/04/01 02:00:31;;;;;;;624.63;271.77;;;;;;;;;;6240607;22;20345;-86
2022/04/01 02:02:57;;;;;;;617.53;268.10;;;;;;;;;;6240657;23;20000;-86
2022/04/01 02:05:23;;;;;;;639.30;278.27;;;;;;;;;;6238699;23;20095;-85
2022/04/01 02:07:52;;;;;;;618.70;267.08;;;;;;;;;;6238707;23;20005;-86
2022/04/01 02:10:18;;;;;;;626.55;271.65;;;;;;;;;;6239291;23;20061;-84
2022/04/01 02:12:45;;;;;;;618.25;267.50;;;;;;;;;;6242988;23;19996;-84
2022/04/01 02:15:11;;;;;;;621.53;268.92;;;;;;;;;;6242506;23;19996;-84
2022/04/01 02:17:38;;;;;;;633.97;276.55;;;;;;;;;;6242659;23;20012;-83
2022/04/01 02:20:09;;;;;;;643.50;280.15;;;;;;;;;;6242385;23;20445;-85
2022/04/01 02:22:35;;;;;;;651.73;227.13;;;;;;;;;;6240980;22;20429;-84
2022/04/01 02:25:03;;;;;;;700.05;276.95;;;;;;;;;;6242657;22;20273;-84
2022/04/01 02:27:30;;;;;;;661.88;276.08;;;;;;;;;;6242666;22;20017;-83
2022/04/01 02:29:56;;;;;;;645.42;275.10;;;;;;;;;;6242471;22;20002;-84
2022/04/01 02:32:23;;;;;;;666.30;287.90;;;;;;;;;;6240542;23;20039;-84
2022/04/01 02:34:49;;;;;;;667.13;289.23;;;;;;;;;;6242290;22;20000;-84
2022/04/01 02:37:19;;;;;;;665.42;290.63;;;;;;;;;;6241662;23;20011;-85
2022/04/01 02:39:45;;;;;;;664.83;289.05;;;;;;;;;;6243446;22;20404;-85
2022/04/01 02:42:11;;;;;;;687.55;306.33;;;;;;;;;;6242307;22;20341;-84
2022/04/01 02:44:37;;;;;;;692.53;311.27;;;;;;;;;;6242204;23;19997;-83
2022/04/01 02:47:03;;;;;;;736.60;342.75;;;;;;;;;;6240501;23;20387;-83
2022/04/01 02:49:29;;;;;;;743.75;346.00;;;;;;;;;;6242062;23;20498;-83
2022/04/01 02:51:55;;;;;;;793.58;294.10;;;;;;;;;;6240648;23;20345;-83
2022/04/01 02:54:21;;;;;;;802.38;345.58;;;;;;;;;;6242158;23;20054;-83
2022/04/01 02:56:48;;;;;;;798.45;351.05;;;;;;;;;;6243042;23;20445;-83
2022/04/01 02:59:14;;;;;;;766.00;283.17;;;;;;;;;;6240520;23;20394;-83
2022/04/01 03:01:41;;;;;;;830.63;338.05;;;;;;;;;;6242098;23;20255;-83
2022/04/01 03:04:09;;;;;;;821.70;357.27;;;;;;;;;;6240126;23;20012;-83
2022/04/01 03:06:35;;;;;;;800.03;366.38;;;;;;;;;;6242287;22;20004;-84
2022/04/01 03:09:01;;;;;;;889.05;333.60;;;;;;;;;;6240527;23;20378;-83
2022/04/01 03:11:27;;;;;;;887.80;384.63;;;;;;;;;;6239957;23;20349;-83
2022/04/01 03:13:53;;;;;;;1001.03;375.90;;;;;;;;;;6240256;23;20342;-84
2022/04/01 03:16:20;;;;;;;986.47;357.05;;;;;;;;;;6241035;23;20382;-83
2022/04/01 03:18:46;;;;;;;978.28;433.42;;;;;;;;;;6242558;23;20447;-84
2022/04/01 03:21:12;;;;;;;997.78;374.25;;;;;;;;;;6240351;23;20350;-83
2022/04/01 03:23:43;;;;;;;916.72;403.00;;;;;;;;;;6241638;23;19996;-84
2022/04/01 03:26:10;;;;;;;907.33;331.13;;;;;;;;;;6240203;22;20354;-83
2022/04/01 03:28:36;;;;;;;921.92;406.42;;;;;;;;;;6239554;23;20004;-84
2022/04/01 03:31:06;;;;;;;930.97;339.23;;;;;;;;;;6240125;23;20376;-84
2022/04/01 03:33:33;;;;;;;950.33;422.13;;;;;;;;;;6241563;22;20333;-83
2022/04/01 03:35:59;;;;;;;948.83;351.13;;;;;;;;;;6240134;23;20441;-83
2022/04/01 03:38:26;;;;;;;952.67;422.10;;;;;;;;;;6241302;23;20004;-85
2022/04/01 03:40:52;;;;;;;487.77;153.18;;;;;;;;;;6238684;23;20358;-85
2022/04/01 03:43:20;;;;;;;715.53;292.38;;;;;;;;;;6242529;23;20068;-84
2022/04/01 03:45:51;;;;;;;725.88;320.23;;;;;;;;;;6240212;23;20413;-85
2022/04/01 03:48:23;;;;;;;702.28;319.92;;;;;;;;;;6240753;23;20009;-85
2022/04/01 03:50:52;;;;;;;638.17;306.80;;;;;;;;;;6242679;22;20000;-85
2022/04/01 03:53:20;;;;;;;629.15;308.02;;;;;;;;;;6242517;22;20008;-85
2022/04/01 03:55:47;;;;;;;664.08;325.58;;;;;;;;;;6241540;23;20035;-84
2022/04/01 03:58:13;;;;;;;685.60;343.05;;;;;;;;;;6239584;23;20070;-84
2022/04/01 04:00:41;;;;;;;718.42;363.73;;;;;;;;;;6241909;23;20375;-85
2022/04/01 04:03:08;;;;;;;723.55;368.85;;;;;;;;;;6241563;23;20425;-85
2022/04/01 04:05:38;;;;;;;715.73;369.77;;;;;;;;;;6241547;23;20333;-84
2022/04/01 04:08:05;;;;;;;731.50;380.35;;;;;;;;;;6239563;23;20008;-85
2022/04/01 04:10:32;;;;;;;735.03;386.48;;;;;;;;;;6239885;23;20448;-85
2022/04/01 04:12:58;;;;;;;750.97;395.67;;;;;;;;;;6241069;22;20004;-85
2022/04/01 04:15:27;;;;;;;759.13;406.13;;;;;;;;;;6241230;23;20000;-85
2022/04/01 04:17:54;;;;;;;751.65;399.58;;;;;;;;;;6242533;23;20004;-85
2022/04/01 04:20:33;;;;;;;757.75;403.63;;;;;;;;;;6240867;23;20388;-87
2022/04/01 04:22:59;;;;;;;793.78;438.48;;;;;;;;;;6239509;23;20004;-86
2022/04/01 04:25:26;;;;;;;809.03;447.70;;;;;;;;;;6240732;23;20000;-84
2022/04/01 04:28:01;;;;;;;789.63;440.73;;;;;;;;;;6241830;23;20462;-85
2022/04/01 04:30:34;;;;;;;818.75;454.40;;;;;;;;;;6239281;23;20015;-85
2022/04/01 04:33:08;;;;;;;719.38;280.80;;;;;;;;;;6239586;23;20346;-85
2022/04/01 04:35:38;;;;;;;922.10;467.02;;;;;;;;;;6240132;23;20079;-85
2022/04/01 04:38:05;;;;;;;863.53;465.33;;;;;;;;;;6240589;23;20043;-85
2022/04/01 04:40:32;;;;;;;855.60;479.58;;;;;;;;;;6241153;23;20075;-85
2022/04/01 04:42:58;;;;;;;838.20;474.67;;;;;;;;;;6240900;23;20007;-85
2022/04/01 04:45:26;;;;;;;779.70;422.17;;;;;;;;;;6241945;23;20004;-84
2022/04/01 04:47:52;;;;;;;838.88;476.42;;;;;;;;;;6240398;23;20000;-85
2022/04/01 04:50:19;;;;;;;798.67;437.02;;;;;;;;;;6239338;23;20400;-85
2022/04/01 04:52:48;;;;;;;815.30;449.88;;;;;;;;;;6241063;23;20300;-85
2022/04/01 04:55:14;;;;;;;735.38;355.05;;;;;;;;;;6240973;22;20004;-85
2022/04/01 04:57:42;;;;;;;729.63;368.27;;;;;;;;;;6241050;23;20004;-85
2022/04/01 05:00:08;;;;;;;754.30;381.37;;;;;;;;;;6239424;23;20000;-84
2022/04/01 05:02:55;;;;;;;746.80;380.98;;;;;;;;;;6241140;23;20130;-85
2022/04/01 05:05:27;;;;;;;742.75;390.25;;;;;;;;;;6241577;22;20441;-84
2022/04/01 05:08:06;;;;;;;763.90;407.05;;;;;;;;;;6241814;23;20008;-85
2022/04/01 05:10:42;;;;;;;769.28;401.88;;;;;;;;;;6240649;22;20005;-85
2022/04/01 05:13:15;;;;;;;727.60;393.77;;;;;;;;;;6240861;22;20000;-85
2022/04/01 05:15:41;;;;;;;718.42;385.55;;;;;;;;;;6239346;23;20023;-86
2022/04/01 05:18:12;;;;;;;762.15;401.77;;;;;;;;;;6239042;23;20054;-85
2022/04/01 05:20:45;;;;;;;728.28;365.58;;;;;;;;;;6240465;23;20027;-84
2022/04/01 05:23:17;;;;;;;727.03;366.77;;;;;;;;;;6240664;22;20000;-85
2022/04/01 05:25:50;;;;;;;688.55;345.35;;;;;;;;;;6240255;23;20029;-84
2022/04/01 05:28:24;;;;;;;718.80;359.63;;;;;;;;;;6238766;23;20004;-85
2022/04/01 05:31:04;;;;;;;704.58;350.00;;;;;;;;;;6240660;22;20012;-85
2022/04/01 05:33:35;;;;;;;734.83;382.48;;;;;;;;;;6241034;22;20007;-85
2022/04/01 05:36:04;;;;;;;712.47;362.15;;;;;;;;;;6240502;23;20417;-85
2022/04/01 05:38:34;;;;;;;690.53;342.15;;;;;;;;;;6233882;22;20074;-86
2022/04/01 05:41:01;;;;;;;681.17;347.75;;;;;;;;;;6237530;22;20084;-86
2022/04/01 05:43:28;;;;;;;725.70;386.27;;;;;;;;;;6235571;22;20007;-85
2022/04/01 05:45:55;;;;;;;744.95;396.35;;;;;;;;;;6241105;23;20000;-86
2022/04/01 05:48:22;;;;;;;705.72;368.35;;;;;;;;;;6232536;23;20008;-87
2022/04/01 05:50:48;;;;;;;246.50;105.95;;;;;;;;;;6234079;23;20006;-87
2022/04/01 05:53:15;;;;;;;778.70;357.20;;;;;;;;;;6238236;23;20011;-87
2022/04/01 05:55:41;;;;;;;1403.85;617.00;;;;;;;;;;6230857;23;20427;-88
2022/04/01 05:58:07;;;;;;;1348.72;552.80;;;;;;;;;;6232909;23;20351;-84
2022/04/01 06:00:37;;;;;;;1290.65;500.50;;;;;;;;;;6235048;23;20389;-89
2022/04/01 06:03:17;;;;;;;1297.68;490.42;;;;;;;;;;6231661;23;20798;-87
2022/04/01 06:06:14;;;;;;;1282.70;486.58;;;;;;;;;;6229735;23;20850;-86
2022/04/01 06:09:06;;;;;;;7.28;2.90;;;;;;;;;;6211299;23;20857;-89
2022/04/01 06:12:08;;;;;;;491.65;151.52;;;;;;;;;;6230833;23;20057;-87
2022/04/01 06:14:58;;;;;;;1192.35;555.05;;;;;;;;;;6116781;23;20009;-88
2022/04/01 06:17:30;;;;;;;1315.90;598.03;;;;;;;;;;6210906;22;20386;-88
2022/04/01 06:19:58;;;;;;;1299.60;568.13;;;;;;;;;;6239161;23;20350;-90
2022/04/01 06:22:27;;;;;;;1313.93;567.40;;;;;;;;;;6233826;22;20429;-89
2022/04/01 06:25:10;;;;;;;1252.53;514.08;;;;;;;;;;6232717;23;20429;-89
2022/04/01 06:27:44;;;;;;;1250.80;505.98;;;;;;;;;;6235951;22;20448;-87
2022/04/01 06:30:13;;;;;;;1270.30;508.58;;;;;;;;;;6237779;22;20366;-87
2022/04/01 06:32:59;;;;;;;1262.38;514.38;;;;;;;;;;6230506;23;20346;-90
2022/04/01 06:35:29;;;;;;;1270.97;518.97;;;;;;;;;;6232166;23;20369;-88
2022/04/01 06:37:58;;;;;;;1264.82;517.30;;;;;;;;;;6238900;22;20368;-86
2022/04/01 06:40:38;;;;;;;1266.63;505.93;;;;;;;;;;6233842;23;20338;-88
2022/04/01 06:43:05;;;;;;;1256.18;498.27;;;;;;;;;;6232417;23;20697;-86
2022/04/01 06:45:31;;;;;;;1267.23;502.13;;;;;;;;;;6237798;23;20790;-88
2022/04/01 06:47:58;;;;;;;1253.97;495.80;;;;;;;;;;6233513;23;20814;-87
2022/04/01 06:50:24;;;;;;;1268.82;501.77;;;;;;;;;;6233620;23;20358;-88
2022/04/01 06:52:51;;;;;;;1264.60;497.65;;;;;;;;;;6237359;23;20695;-87
2022/04/01 06:55:17;;;;;;;1266.00;496.37;;;;;;;;;;6232886;22;20346;-86
2022/04/01 06:57:43;;;;;;;1266.18;494.52;;;;;;;;;;6232729;23;20449;-86
2022/04/01 07:00:12;;;;;;;1264.47;493.80;;;;;;;;;;6238890;23;20338;-89
2022/04/01 07:02:39;;;;;;;1266.50;496.13;;;;;;;;;;6234878;22;20822;-86
2022/04/01 07:05:05;;;;;;;1235.38;480.40;;;;;;;;;;6234555;23;20960;-88
2022/04/01 07:07:32;;;;;;;1239.83;477.47;;;;;;;;;;6238178;23;20358;-88
2022/04/01 07:09:58;;;;;;;1263.00;484.30;;;;;;;;;;6235716;23;20342;-87
2022/04/01 07:12:24;;;;;;;1278.60;490.73;;;;;;;;;;6234734;23;20412;-87
2022/04/01 07:14:50;;;;;;;1256.15;481.17;;;;;;;;;;6237594;23;20354;-87
2022/04/01 07:17:17;;;;;;;1200.63;442.80;;;;;;;;;;6234417;22;20381;-86
2022/04/01 07:19:43;;;;;;;1231.97;477.70;;;;;;;;;;6234478;23;20373;-87
2022/04/01 07:22:09;;;;;;;1241.30;489.02;;;;;;;;;;6238566;23;20370;-88
2022/04/01 07:24:35;;;;;;;1221.68;469.00;;;;;;;;;;6233810;23;20360;-88
2022/04/01 07:27:01;;;;;;;1230.68;470.45;;;;;;;;;;6232731;23;20366;-88
2022/04/01 07:29:28;;;;;;;1203.05;436.70;;;;;;;;;;6237564;23;20362;-88
2022/04/01 07:34:41;;;;;;;1192.00;480.02;;;;;;;;;;6235368;23;20018;-88
2022/04/01 07:37:08;;;;;;;1035.90;367.42;;;;;;;;;;6238595;23;20400;-89
2022/04/01 07:39:35;;;;;;;993.25;366.08;;;;;;;;;;6235414;22;20490;-89
2022/04/01 07:42:01;;;;;;;1073.80;408.27;;;;;;;;;;6236868;23;20008;-91
2022/04/01 07:44:27;;;;;;;1188.87;420.87;;;;;;;;;;6240651;23;20383;-90
2022/04/01 07:46:54;;;;;;;1184.82;403.45;;;;;;;;;;6234139;23;20850;-89
2022/04/01 07:49:23;;;;;;;1129.35;383.17;;;;;;;;;;6232823;23;20358;-91
2022/04/01 07:51:49;;;;;;;1141.65;478.95;;;;;;;;;;6238187;23;20220;-88
2022/04/01 07:54:15;;;;;;;1227.13;472.58;;;;;;;;;;6233661;23;20841;-89
2022/04/01 07:56:42;;;;;;;1346.50;514.92;;;;;;;;;;6235595;23;20384;-90
2022/04/01 07:59:09;;;;;;;1325.78;519.10;;;;;;;;;;6238066;23;20380;-88
2022/04/01 08:01:35;;;;;;;1373.57;553.60;;;;;;;;;;6239077;23;20656;-90
2022/04/01 08:04:01;;;;;;;1402.38;568.08;;;;;;;;;;6238318;23;20353;-90
2022/04/01 08:06:28;;;;;;;1441.55;605.08;;;;;;;;;;6239331;23;20350;-90
2022/04/01 08:08:55;;;;;;;1390.47;584.70;;;;;;;;;;6237718;23;20386;-84
2022/04/01 08:11:22;;;;;;;1403.85;584.50;;;;;;;;;;6238851;22;20359;-88
2022/04/01 08:13:48;;;;;;;1387.50;583.30;;;;;;;;;;6238936;22;20794;-87
2022/04/01 08:16:14;;;;;;;1395.65;584.65;;;;;;;;;;6237249;23;20769;-88
2022/04/01 08:18:41;;;;;;;1419.93;593.42;;;;;;;;;;6239251;22;20346;-87
2022/04/01 08:21:07;;;;;;;1431.10;588.40;;;;;;;;;;6238366;23;20683;-89
2022/04/01 08:23:34;;;;;;;1368.25;544.05;;;;;;;;;;6237670;23;20816;-87
2022/04/01 08:26:02;;;;;;;1381.30;554.75;;;;;;;;;;6240176;22;20356;-86
2022/04/01 08:28:28;;;;;;;1402.70;560.07;;;;;;;;;;6240470;22;20826;-89
2022/04/01 08:30:54;;;;;;;1411.90;558.92;;;;;;;;;;6239291;23;20419;-90
2022/04/01 08:33:20;;;;;;;1428.63;566.37;;;;;;;;;;6239025;23;20421;-88
2022/04/01 08:35:47;;;;;;;1422.10;563.72;;;;;;;;;;6240997;22;20382;-88
2022/04/01 08:38:13;;;;;;;1423.18;551.05;;;;;;;;;;6250526;23;20354;-87
2022/04/01 08:40:39;;;;;;;1433.97;557.35;;;;;;;;;;6246770;23;20338;-85
2022/04/01 08:43:05;;;;;;;1494.38;604.95;;;;;;;;;;6245352;23;20396;-88
2022/04/01 08:45:36;;;;;;;1481.40;592.17;;;;;;;;;;6240434;23;20350;-87
2022/04/01 08:48:03;;;;;;;1533.43;642.22;;;;;;;;;;6237420;23;20350;-88
2022/04/01 08:50:29;;;;;;;;;;;;;;;;;;6239503;23;20412;-88
2022/04/01 08:52:55;;;;;;;;;;;;;;;;;;6239027;23;20340;-89
2022/04/01 08:55:21;;;;;;;;;;;;;;;;;;6238688;23;20436;-89
2022/04/01 08:57:47;;;;;;;;;;;;;;;;;;6235989;23;20459;-88
2022/04/01 09:00:13;;;;;;;;;;;;;;;;;;6238503;23;20798;-89
2022/04/01 09:02:39;;;;;;;1690.97;736.15;;;;;;;;;;6238545;23;20358;-90
2022/04/01 09:05:06;;;;;;;1566.80;738.60;;;;;;;;;;6239036;23;20349;-87
2022/04/01 09:07:32;;;;;;;1600.90;730.70;;;;;;;;;;6239296;23;20359;-89
2022/04/01 09:10:01;;;;;;;1604.50;746.40;;;;;;;;;;6239350;23;20386;-88
2022/04/01 09:12:29;;;;;;;1572.60;744.37;;;;;;;;;;6238533;22;20446;-87
2022/04/01 09:14:55;;;;;;;1573.20;758.33;;;;;;;;;;6239503;22;20346;-87
2022/04/01 09:17:22;;;;;;;1602.28;754.10;;;;;;;;;;6236329;23;20385;-89
2022/04/01 09:19:48;;;;;;;;;;;;;;;;;;6238683;22;20723;-90
2022/04/01 09:22:14;;;;;;;;;;;;;;;;;;6237891;23;25143;-87
2022/04/01 09:24:40;;;;;;;;;;;;;;;;;;6236788;22;20348;-86
2022/04/01 09:27:06;;;;;;;;;;;;;;;;;;6237606;23;20384;-88
2022/04/01 09:29:34;;;;;;;;;;;;;;;;;;6237732;23;20367;-86
2022/04/01 09:32:00;;;;;;;;;;;;;;;;;;6238007;22;25061;-88
2022/04/01 09:34:26;;;;;;;;;;;;;;;;;;6238558;23;20426;-87
2022/04/01 09:36:52;;;;;;;;;;;;;;;;;;6237513;23;20375;-89
2022/04/01 09:39:19;;;;;;;1695.80;783.70;;;;;;;;;;6237654;23;20344;-88
2022/04/01 09:41:46;;;;;;;;;;;;;;;;;;6238022;23;24734;-88
2022/04/01 09:44:12;;;;;;;;;;;;;;;;;;6237866;22;20350;-88
2022/04/01 09:46:38;;;;;;;;;;;;;;;;;;6237840;22;20331;-87
2022/04/01 09:49:04;;;;;;;;;;;;;;;;;;6238420;23;20429;-89
2022/04/01 09:51:30;;;;;;;;;;;;;;;;;;6239069;23;25088;-88
2022/04/01 09:53:58;;;;;;;;;;;;;;;;;;6238184;23;20342;-87
2022/04/01 09:56:24;;;;;;;;;;;;;;;;;;6239271;22;20379;-88
2022/04/01 09:58:50;;;;;;;;;;;;;;;;;;6237379;23;20343;-85
2022/04/01 10:01:16;;;;;;;;;;;;;;;;;;6234558;23;20339;-89
2022/04/01 10:03:42;;;;;;;;;;;;;;;;;;6238268;23;25109;-90
2022/04/01 10:06:10;;;;;;;;;;;;;;;;;;6238958;23;20314;-91
2022/04/01 10:08:36;;;;;;;;;;;;;;;;;;6238482;22;20381;-89
2022/04/01 10:11:03;;;;;;;;;;;;;;;;;;6238290;23;25073;-87
2022/04/01 10:13:32;;;;;;;;;;;;;;;;;;6238599;22;20337;-89
2022/04/01 10:15:58;;;;;;;;;;;;;;;;;;6237541;23;20866;-89
2022/04/01 10:18:24;;;;;;;;;;;;;;;;;;6238467;23;20318;-90
2022/04/01 10:20:50;;;;;;;;;;;;;;;;;;6237463;23;20409;-89
2022/04/01 10:23:16;;;;;;;;;;;;;;;;;;6237381;23;25062;-90
2022/04/01 10:25:42;;;;;;;;;;;;;;;;;;6238942;23;20323;-89
2022/04/01 10:28:07;;;;;;;;;;;;;;;;;;6236728;23;25064;-89
2022/04/01 10:30:35;;;;;;;;;;;;;;;;;;6240376;23;20696;-89
2022/04/01 10:33:00;;;;;;;;;;;;;;;;;;6239970;22;25064;-90
2022/04/01 10:35:27;;;;;;;;;;;;;;;;;;6241164;23;20627;-90
2022/04/01 10:37:53;;;;;;;;;;;;;;;;;;6239160;23;25072;-90
2022/04/01 10:40:19;;;;;;;;;;;;;;;;;;6240918;22;20367;-88
2022/04/01 10:42:45;;;;;;;;;;;;;;;;;;6241534;23;20680;-88
2022/04/01 10:45:11;;;;;;;;;;;;;;;;;;6239645;23;20890;-90
2022/04/01 10:51:36;;;;;;;;;;;;;;;;;;6240647;23;20327;-90
2022/04/01 10:53:08;;;;;;;;;;;;;;;;;;6241870;23;20698;-90
2022/04/01 10:55:34;;;;;;;;;;;;;;;;;;6240738;23;25152;-90
2022/04/01 10:58:00;;;;;;;;;;;;;;;;;;6241106;23;20368;-92
2022/04/01 11:00:26;;;;;;;;;;;;;;;;;;6238424;23;25072;-89
2022/04/01 11:02:52;;;;;;;;;;;;;;;;;;6242047;23;20355;-89
2022/04/01 11:05:17;;;;;;;;;;;;;;;;;;6239438;23;20814;-88
2022/04/01 11:07:43;;;;;;;;;;;;;;;;;;6242918;23;20653;-89
2022/04/01 11:10:24;;;;;;;1812.10;778.75;;;;;;;;;;6252722;23;20338;-88
2022/04/01 11:12:50;;;;;;;1557.65;663.83;;;;;;;;;;6257106;22;20346;-87
2022/04/01 11:15:23;;;;;;;1565.20;663.73;;;;;;;;;;6256878;23;20350;-88
2022/04/01 11:17:52;;;;;;;1538.43;647.75;;;;;;;;;;6240759;23;20483;-89
2022/04/01 11:20:27;;;;;;;1522.68;633.65;;;;;;;;;;6243138;23;20361;-91
2022/04/01 11:22:54;;;;;;;1564.30;674.20;;;;;;;;;;6242428;22;20500;-88
2022/04/01 11:25:27;;;;;;;1534.90;671.90;;;;;;;;;;6241324;22;20433;-89
2022/04/01 11:28:17;;;;;;;1538.80;650.70;;;;;;;;;;6249735;22;20384;-90
2022/04/01 11:31:03;;;;;;;1506.50;635.33;;;;;;;;;;6241352;23;20904;-87
2022/04/01 11:33:29;;;;;;;1527.82;636.67;;;;;;;;;;6243118;23;20350;-94
2022/04/01 11:35:57;;;;;;;1513.40;633.00;;;;;;;;;;6232636;23;20453;-87
2022/04/01 11:38:27;;;;;;;1525.03;638.95;;;;;;;;;;6238282;22;20358;-88
2022/04/01 11:40:56;;;;;;;1538.90;647.10;;;;;;;;;;6238752;23;20400;-87
2022/04/01 11:43:23;;;;;;;1612.03;655.70;;;;;;;;;;6239446;22;20353;-88
2022/04/01 11:45:57;;;;;;;1587.90;649.15;;;;;;;;;;6239069;23;20338;-84
2022/04/01 11:48:26;;;;;;;1540.35;625.60;;;;;;;;;;6240388;22;20346;-87
2022/04/01 11:50:54;;;;;;;1564.50;668.53;;;;;;;;;;6239472;22;20339;-86
2022/04/01 11:53:20;;;;;;;1577.20;682.80;;;;;;;;;;6239239;22;20358;-87
2022/04/01 11:55:46;;;;;;;1551.40;691.87;;;;;;;;;;6239626;23;20361;-87
2022/04/01 11:58:12;;;;;;;1608.07;687.20;;;;;;;;;;6239523;23;20346;-87
2022/04/01 12:00:38;;;;;;;1556.20;680.30;;;;;;;;;;6240453;23;20421;-91
2022/04/01 12:03:07;;;;;;;1534.63;667.87;;;;;;;;;;6239553;23;20353;-87
2022/04/01 12:05:33;;;;;;;1532.07;659.75;;;;;;;;;;6239390;22;20444;-83
2022/04/01 12:10:54;;;;;;;1561.40;653.13;;;;;;;;;;6240101;23;20766;-84
2022/04/01 12:13:21;;;;;;;1560.68;654.03;;;;;;;;;;6240018;23;20378;-84
2022/04/01 12:15:47;;;;;;;1565.47;666.23;;;;;;;;;;6239768;23;20368;-86
2022/04/01 12:18:15;;;;;;;1544.60;661.35;;;;;;;;;;6239832;23;20432;-84
2022/04/01 12:20:41;;;;;;;1496.00;659.90;;;;;;;;;;6240882;23;20865;-86
2022/04/01 12:23:07;;;;;;;1625.53;684.17;;;;;;;;;;6239793;23;20677;-86
2022/04/01 12:25:37;;;;;;;1502.63;678.00;;;;;;;;;;6241042;23;20500;-88
2022/04/01 12:28:04;;;;;;;1514.23;637.60;;;;;;;;;;6238743;23;20601;-86
2022/04/01 12:30:42;;;;;;;1569.03;692.57;;;;;;;;;;6239847;23;20342;-88
2022/04/01 12:33:15;;;;;;;1177.63;443.45;;;;;;;;;;6240929;23;20423;-87
2022/04/01 12:36:00;;;;;;;13.82;5.68;;;;;;;;;;6240767;23;20004;-88
2022/04/01 12:38:27;;;;;;;158.38;69.50;;;;;;;;;;6239952;23;20004;-90
2022/04/01 12:40:55;;;;;;;16.33;7.22;;;;;;;;;;6239886;23;20004;-87
2022/04/01 12:43:36;;;;;;;8.00;2.10;;;;;;;;;;6241277;23;20004;-89
2022/04/01 12:46:13;;;;;;;6.82;2.42;;;;;;;;;;6241506;23;20023;-89
2022/04/01 12:48:50;;;;;;;4.07;2.20;;;;;;;;;;6240994;23;20377;-90
2022/04/01 12:51:17;;;;;;;6.93;2.63;;;;;;;;;;6239402;23;20011;-87
2022/04/01 12:54:02;;;;;;;6.22;2.47;;;;;;;;;;6242396;23;20000;-85
2022/04/01 12:56:29;;;;;;;3.85;2.85;;;;;;;;;;6240569;22;20326;-86
2022/04/01 12:58:56;;;;;;;7.30;2.30;;;;;;;;;;6241072;23;20027;-87
2022/04/01 13:01:30;;;;;;;4.45;3.65;;;;;;;;;;6240982;23;20004;-88
2022/04/01 13:03:57;;;;;;;9.90;3.30;;;;;;;;;;6241062;23;19996;-89
2022/04/01 13:06:27;;;;;;;12.23;5.03;;;;;;;;;;6239516;23;20000;-87
2022/04/01 13:09:00;;;;;;;9.18;3.70;;;;;;;;;;6240928;23;20058;-88
2022/04/01 13:11:39;;;;;;;7.03;2.95;;;;;;;;;;6241103;23;20018;-88
2022/04/01 13:14:23;;;;;;;10.23;3.05;;;;;;;;;;6239573;23;20610;-89
2022/04/01 13:16:51;;;;;;;7.55;3.17;;;;;;;;;;6239285;23;20095;-88
2022/04/01 13:19:26;;;;;;;13.93;3.38;;;;;;;;;;6241403;23;20075;-89
2022/04/01 13:21:53;;;;;;;10.32;4.10;;;;;;;;;;6241214;22;20000;-88
2022/04/01 13:24:22;;;;;;;10.23;3.70;;;;;;;;;;6239868;23;20345;-91
2022/04/01 13:26:49;;;;;;;7.85;3.40;;;;;;;;;;6239759;23;20022;-90
2022/04/01 13:29:15;;;;;;;11.35;4.25;;;;;;;;;;6240489;23;20004;-89
2022/04/01 13:31:42;;;;;;;7.30;3.13;;;;;;;;;;6240616;23;20057;-87
2022/04/01 13:34:08;;;;;;;8.00;3.40;;;;;;;;;;6239489;23;20417;-91
2022/04/01 13:36:35;;;;;;;9.88;4.72;;;;;;;;;;6239254;23;20130;-89
2022/04/01 13:39:01;;;;;;;11.40;6.00;;;;;;;;;;6241216;23;20333;-89
2022/04/01 13:41:27;;;;;;;13.07;7.95;;;;;;;;;;6239768;23;20441;-89
2022/04/01 13:43:53;;;;;;;12.60;5.78;;;;;;;;;;6260944;23;19996;-88
2022/04/01 13:46:20;;;;;;;10.55;5.32;;;;;;;;;;6259745;22;20522;-87
2022/04/01 13:48:46;;;;;;;8.15;4.40;;;;;;;;;;6250700;23;20023;-84
2022/04/01 13:51:13;;;;;;;9.02;3.22;;;;;;;;;;6240652;22;20006;-88
2022/04/01 13:53:39;;;;;;;8.35;4.85;;;;;;;;;;6239332;22;20000;-87
2022/04/01 13:56:05;;;;;;;6.65;4.10;;;;;;;;;;6239087;23;20413;-86
2022/04/01 13:58:31;;;;;;;8.07;3.38;;;;;;;;;;6239287;23;20017;-86
2022/04/01 14:00:57;;;;;;;9.10;3.42;;;;;;;;;;6237783;23;20306;-88
2022/04/01 14:03:23;;;;;;;7.28;3.50;;;;;;;;;;6238349;23;20015;-88
2022/04/01 14:05:49;;;;;;;11.38;4.72;;;;;;;;;;6237677;23;20011;-88
2022/04/01 14:08:15;;;;;;;10.65;3.70;;;;;;;;;;6240369;23;20046;-88
2022/04/01 14:10:41;;;;;;;4.75;3.17;;;;;;;;;;6237797;23;20032;-89
2022/04/01 14:13:08;;;;;;;4.30;2.42;;;;;;;;;;6240773;23;20249;-90
2022/04/01 14:15:35;;;;;;;6.03;2.78;;;;;;;;;;6239049;23;20013;-87
2022/04/01 14:18:01;;;;;;;8.07;3.10;;;;;;;;;;6238263;23;20006;-88
2022/04/01 14:20:28;;;;;;;12.18;4.00;;;;;;;;;;6237599;23;20087;-88
2022/04/01 14:22:57;;;;;;;7.65;4.00;;;;;;;;;;6239578;22;20004;-90
2022/04/01 14:25:24;;;;;;;5.25;3.25;;;;;;;;;;6237633;23;20000;-89
2022/04/01 14:27:50;;;;;;;8.73;3.30;;;;;;;;;;6237658;23;20076;-88
2022/04/01 14:30:21;;;;;;;6.45;4.40;;;;;;;;;;6240657;22;20008;-88
2022/04/01 14:32:49;;;;;;;7.45;3.92;;;;;;;;;;6240101;22;20433;-87
2022/04/01 14:35:16;;;;;;;7.55;3.42;;;;;;;;;;6238515;23;20007;-89
2022/04/01 14:37:42;;;;;;;15.43;4.38;;;;;;;;;;6239228;23;20452;-89